createdAt,value
2018-12-26T00:01:49.042Z,86.40
2018-12-26T00:04:26.571Z,86.50
2018-12-26T00:07:04.106Z,86.40
2018-12-26T00:09:41.608Z,86.20
2018-12-26T00:12:19.141Z,86.30
2018-12-26T00:14:56.904Z,86.30
2018-12-26T00:17:34.413Z,86.50
2018-12-26T00:20:11.916Z,86.60
2018-12-26T00:22:49.429Z,86.60
2018-12-26T00:25:26.957Z,86.50
2018-12-26T00:28:04.449Z,86.50
2018-12-26T00:30:41.944Z,86.50
2018-12-26T00:33:19.470Z,86.50
2018-12-26T00:35:56.946Z,86.60
2018-12-26T00:38:34.485Z,86.60
2018-12-26T00:41:11.967Z,86.70
2018-12-26T00:43:49.511Z,86.70
2018-12-26T00:46:27.020Z,86.80
2018-12-26T00:49:04.530Z,87.00
2018-12-26T00:51:42.062Z,87.00
2018-12-26T00:54:19.545Z,87.10
2018-12-26T00:56:57.022Z,87.10
2018-12-26T00:59:34.529Z,87.20
2018-12-26T01:02:12.021Z,87.30
2018-12-26T01:04:49.514Z,87.30
2018-12-26T01:07:27.001Z,87.30
2018-12-26T01:10:04.535Z,87.30
2018-12-26T01:12:42.050Z,87.30
2018-12-26T01:15:19.540Z,87.40
2018-12-26T01:17:58.204Z,87.30
2018-12-26T01:20:34.528Z,87.20
2018-12-26T01:23:12.051Z,87.20
2018-12-26T01:25:49.557Z,87.20
2018-12-26T01:28:27.060Z,87.20
2018-12-26T01:31:04.559Z,87.00
2018-12-26T01:33:42.074Z,87.00
2018-12-26T01:36:19.829Z,87.00
2018-12-26T01:38:57.338Z,86.90
2018-12-26T01:41:34.819Z,86.90
2018-12-26T01:44:12.329Z,86.90
2018-12-26T01:46:49.815Z,86.90
2018-12-26T01:49:27.322Z,86.90
2018-12-26T01:52:04.849Z,86.60
2018-12-26T01:54:46.497Z,86.60
2018-12-26T01:57:23.940Z,86.60
2018-12-26T02:00:01.458Z,86.50
2018-12-26T02:02:38.946Z,86.20
2018-12-26T02:05:16.467Z,86.00
2018-12-26T02:07:53.954Z,85.80
2018-12-26T02:10:31.485Z,85.70
2018-12-26T02:13:08.983Z,85.90
2018-12-26T02:15:46.483Z,85.70
2018-12-26T02:18:24.008Z,85.60
2018-12-26T02:21:01.486Z,85.60
2018-12-26T02:23:39.012Z,85.30
2018-12-26T02:26:16.511Z,85.20
2018-12-26T02:28:54.024Z,84.90
2018-12-26T02:31:33.908Z,84.80
2018-12-26T02:34:11.407Z,84.90
2018-12-26T02:36:48.903Z,84.80
2018-12-26T02:39:26.419Z,84.80
2018-12-26T02:42:03.921Z,84.70
2018-12-26T02:44:41.436Z,84.70
2018-12-26T02:47:18.916Z,84.60
2018-12-26T02:49:56.438Z,84.50
2018-12-26T02:52:34.007Z,84.50
2018-12-26T02:55:11.407Z,84.50
2018-12-26T02:57:48.895Z,84.80
2018-12-26T03:00:26.387Z,84.60
2018-12-26T03:03:03.890Z,84.80
2018-12-26T03:05:41.388Z,84.60
2018-12-26T03:08:18.881Z,84.60
2018-12-26T03:10:56.415Z,84.60
2018-12-26T03:13:33.907Z,84.40
2018-12-26T03:16:11.378Z,84.20
2018-12-26T03:18:48.894Z,83.90
2018-12-26T03:21:26.384Z,83.90
2018-12-26T03:24:03.936Z,83.80
2018-12-26T03:26:41.450Z,83.80
2018-12-26T03:29:18.952Z,83.80
2018-12-26T03:31:56.485Z,83.70
2018-12-26T03:34:33.973Z,83.50
2018-12-26T03:37:11.456Z,83.40
2018-12-26T03:39:48.958Z,83.20
2018-12-26T03:42:26.436Z,83.40
2018-12-26T03:45:04.348Z,83.40
2018-12-26T03:47:41.826Z,83.60
2018-12-26T03:50:19.343Z,83.80
2018-12-26T03:52:56.819Z,83.70
2018-12-26T03:55:34.384Z,83.70
2018-12-26T03:58:11.862Z,83.70
2018-12-26T04:00:49.360Z,83.80
2018-12-26T04:03:26.826Z,84.00
2018-12-26T04:06:04.328Z,84.20
2018-12-26T04:08:41.821Z,84.30
2018-12-26T04:11:19.319Z,84.40
2018-12-26T04:13:56.819Z,84.50
2018-12-26T04:16:34.320Z,84.50
2018-12-26T04:19:11.820Z,84.50
2018-12-26T04:21:49.394Z,84.40
2018-12-26T04:24:26.927Z,84.40
2018-12-26T04:27:04.406Z,84.20
2018-12-26T04:29:41.917Z,83.80
2018-12-26T04:32:19.402Z,83.50
2018-12-26T04:34:56.901Z,83.20
2018-12-26T04:37:34.383Z,83.10
2018-12-26T04:40:11.905Z,83.00
2018-12-26T04:42:49.405Z,82.70
2018-12-26T04:45:26.923Z,82.50
2018-12-26T04:48:04.412Z,82.30
2018-12-26T04:50:41.918Z,82.00
2018-12-26T04:53:19.395Z,81.80
2018-12-26T04:55:56.923Z,81.90
2018-12-26T04:58:34.414Z,81.80
2018-12-26T05:01:11.914Z,81.80
2018-12-26T05:03:49.417Z,81.70
2018-12-26T05:06:26.931Z,81.70
2018-12-26T05:09:04.451Z,81.70
2018-12-26T05:11:41.965Z,81.60
2018-12-26T05:14:19.457Z,81.60
2018-12-26T05:16:56.976Z,81.50
2018-12-26T05:19:34.487Z,81.60
2018-12-26T05:22:11.975Z,81.50
2018-12-26T05:24:49.459Z,81.40
2018-12-26T05:27:34.196Z,81.40
2018-12-26T05:30:04.483Z,81.30
2018-12-26T05:32:41.969Z,81.40
2018-12-26T05:35:19.473Z,81.50
2018-12-26T05:37:56.957Z,81.50
2018-12-26T05:40:34.466Z,81.40
2018-12-26T05:43:11.973Z,81.50
2018-12-26T05:45:49.490Z,81.50
2018-12-26T05:48:26.959Z,82.40
2018-12-26T05:51:04.492Z,81.50
2018-12-26T05:53:41.963Z,81.40
2018-12-26T05:56:19.471Z,81.40
2018-12-26T05:58:56.964Z,81.30
2018-12-26T06:01:34.484Z,81.40
2018-12-26T06:04:11.975Z,82.10
2018-12-26T06:06:49.502Z,81.40
2018-12-26T06:09:26.991Z,81.40
2018-12-26T06:12:04.501Z,81.50
2018-12-26T06:14:41.973Z,81.60
2018-12-26T06:17:19.476Z,81.80
2018-12-26T06:19:56.964Z,81.80
2018-12-26T06:22:34.491Z,82.00
2018-12-26T06:25:12.024Z,82.00
2018-12-26T06:27:51.616Z,82.00
2018-12-26T06:30:27.014Z,82.00
2018-12-26T06:33:04.499Z,82.30
2018-12-26T06:35:41.999Z,82.60
2018-12-26T06:38:19.491Z,83.00
2018-12-26T06:40:56.991Z,83.20
2018-12-26T06:43:34.485Z,83.80
2018-12-26T06:46:11.987Z,84.20
2018-12-26T06:48:49.470Z,84.60
2018-12-26T06:51:26.990Z,85.30
2018-12-26T06:54:04.472Z,86.50
2018-12-26T06:56:41.985Z,87.30
2018-12-26T06:59:19.472Z,88.80
2018-12-26T07:01:56.970Z,89.70
2018-12-26T07:04:34.473Z,89.40
2018-12-26T07:07:11.983Z,89.90
2018-12-26T07:09:49.474Z,90.00
2018-12-26T07:12:26.971Z,90.10
2018-12-26T07:15:04.461Z,90.10
2018-12-26T07:17:41.975Z,90.20
2018-12-26T07:20:19.445Z,90.30
2018-12-26T07:22:56.966Z,90.40
2018-12-26T07:25:34.511Z,90.50
2018-12-26T07:28:11.996Z,90.60
2018-12-26T07:30:49.515Z,90.80
2018-12-26T07:33:27.010Z,90.90
2018-12-26T07:36:04.514Z,91.10
2018-12-26T07:38:42.007Z,91.30
2018-12-26T07:41:19.555Z,91.50
2018-12-26T07:43:57.029Z,91.70
2018-12-26T07:46:34.534Z,91.90
2018-12-26T07:49:12.029Z,92.10
2018-12-26T07:51:49.542Z,92.30
2018-12-26T07:54:27.023Z,92.50
2018-12-26T07:57:04.526Z,92.60
2018-12-26T07:59:42.014Z,92.70
2018-12-26T08:02:19.634Z,92.70
2018-12-26T08:04:57.123Z,92.80
2018-12-26T08:07:34.624Z,92.80
2018-12-26T08:10:12.276Z,92.80
2018-12-26T08:12:49.794Z,92.70
2018-12-26T08:15:27.352Z,92.80
2018-12-26T08:18:04.862Z,92.70
2018-12-26T08:20:42.353Z,92.60
2018-12-26T08:23:19.860Z,92.70
2018-12-26T08:25:57.370Z,92.50
2018-12-26T08:28:34.910Z,92.30
2018-12-26T08:31:12.414Z,92.10
2018-12-26T08:33:49.914Z,92.10
2018-12-26T08:36:27.424Z,92.10
2018-12-26T08:39:05.813Z,92.00
2018-12-26T08:41:43.337Z,91.90
2018-12-26T08:44:20.846Z,91.80
2018-12-26T08:46:58.358Z,91.80
2018-12-26T08:49:35.853Z,91.60
2018-12-26T08:52:13.363Z,91.60
2018-12-26T08:54:50.851Z,91.50
2018-12-26T08:57:28.388Z,91.60
2018-12-26T09:00:06.094Z,91.70
2018-12-26T09:02:43.589Z,91.70
2018-12-26T09:05:21.054Z,91.80
2018-12-26T09:07:58.567Z,91.80
2018-12-26T09:10:36.042Z,91.40
2018-12-26T09:13:13.600Z,91.10
2018-12-26T09:15:51.073Z,90.90
2018-12-26T09:18:28.569Z,90.60
2018-12-26T09:21:06.044Z,90.50
2018-12-26T09:23:43.543Z,90.40
2018-12-26T09:26:21.050Z,90.50
2018-12-26T09:28:58.572Z,90.10
2018-12-26T09:31:36.079Z,90.00
2018-12-26T09:34:13.564Z,90.20
2018-12-26T09:36:51.082Z,90.40
2018-12-26T09:39:28.571Z,90.30
2018-12-26T09:42:06.390Z,90.00
2018-12-26T09:44:43.877Z,90.00
2018-12-26T09:47:21.372Z,90.10
2018-12-26T09:49:58.854Z,90.20
2018-12-26T09:52:36.376Z,90.00
2018-12-26T09:55:14.150Z,90.20
2018-12-26T09:57:51.646Z,90.10
2018-12-26T10:00:29.129Z,90.00
2018-12-26T10:03:06.638Z,90.30
2018-12-26T10:05:44.120Z,90.70
2018-12-26T10:08:21.613Z,90.90
2018-12-26T10:10:59.095Z,91.20
2018-12-26T10:13:36.599Z,91.00
2018-12-26T10:16:14.087Z,90.70
2018-12-26T10:18:51.609Z,90.50
2018-12-26T10:21:29.065Z,90.40
2018-12-26T10:24:06.567Z,90.10
2018-12-26T10:26:44.072Z,89.90
2018-12-26T10:29:21.580Z,89.70
2018-12-26T10:31:59.147Z,90.00
2018-12-26T10:34:36.640Z,90.40
2018-12-26T10:37:14.112Z,90.80
2018-12-26T10:39:51.623Z,91.10
2018-12-26T10:42:29.120Z,91.20
2018-12-26T10:45:07.084Z,91.30
2018-12-26T10:47:44.603Z,91.50
2018-12-26T10:50:22.091Z,91.80
2018-12-26T10:52:59.593Z,92.00
2018-12-26T10:55:37.082Z,92.40
2018-12-26T10:58:14.592Z,92.70
2018-12-26T11:00:52.104Z,93.00
2018-12-26T11:03:29.613Z,93.30
2018-12-26T11:06:07.102Z,93.70
2018-12-26T11:08:44.599Z,93.90
2018-12-26T11:11:22.077Z,94.20
2018-12-26T11:13:59.578Z,94.40
2018-12-26T11:16:37.061Z,94.60
2018-12-26T11:19:14.566Z,95.10
2018-12-26T11:21:52.066Z,94.80
2018-12-26T11:24:29.587Z,94.90
2018-12-26T11:27:07.089Z,95.00
2018-12-26T11:29:44.612Z,95.10
2018-12-26T11:32:22.138Z,95.20
2018-12-26T11:34:59.602Z,95.30
2018-12-26T11:37:37.140Z,95.40
2018-12-26T11:40:15.067Z,95.50
2018-12-26T11:42:52.608Z,95.60
2018-12-26T11:45:30.076Z,95.80
2018-12-26T11:48:07.579Z,95.80
2018-12-26T11:50:45.084Z,96.00
2018-12-26T11:53:22.594Z,96.00
2018-12-26T11:56:00.075Z,96.10
2018-12-26T11:58:37.571Z,96.10
2018-12-26T12:01:15.062Z,96.20
2018-12-26T12:03:52.591Z,96.60
2018-12-26T12:06:30.072Z,96.40
2018-12-26T12:09:09.364Z,96.40
2018-12-26T12:11:46.858Z,96.40
2018-12-26T12:14:24.384Z,96.40
2018-12-26T12:17:01.864Z,96.50
2018-12-26T12:19:39.371Z,96.60
2018-12-26T12:22:16.864Z,96.70
2018-12-26T12:24:54.417Z,96.70
2018-12-26T12:27:31.941Z,96.70
2018-12-26T12:30:09.848Z,96.70
2018-12-26T12:32:47.345Z,96.70
2018-12-26T12:35:24.890Z,96.60
2018-12-26T12:38:02.376Z,96.60
2018-12-26T12:40:39.902Z,96.50
2018-12-26T12:43:27.770Z,96.60
2018-12-26T12:46:05.242Z,96.70
2018-12-26T12:48:42.774Z,96.60
2018-12-26T12:51:20.277Z,96.60
2018-12-26T12:53:57.769Z,96.70
2018-12-26T12:56:35.259Z,96.70
2018-12-26T12:59:12.777Z,96.70
2018-12-26T13:01:50.263Z,96.70
2018-12-26T13:04:27.761Z,96.70
2018-12-26T13:07:05.281Z,96.60
2018-12-26T13:09:42.776Z,96.50
2018-12-26T13:12:20.288Z,96.50
2018-12-26T13:14:57.802Z,96.50
2018-12-26T13:17:35.300Z,96.50
2018-12-26T13:20:13.264Z,96.50
2018-12-26T13:22:50.753Z,96.50
2018-12-26T13:25:28.296Z,96.40
2018-12-26T13:28:05.780Z,96.30
2018-12-26T13:30:43.292Z,96.20
2018-12-26T13:33:20.791Z,96.50
2018-12-26T13:35:58.296Z,96.10
2018-12-26T13:38:35.812Z,96.10
2018-12-26T13:41:13.298Z,96.10
2018-12-26T13:43:50.815Z,96.00
2018-12-26T13:46:33.744Z,96.00
2018-12-26T13:49:05.815Z,95.90
2018-12-26T13:51:43.287Z,95.90
2018-12-26T13:54:20.780Z,95.80
2018-12-26T13:56:58.274Z,95.70
2018-12-26T13:59:35.807Z,95.80
2018-12-26T14:02:13.284Z,95.70
2018-12-26T14:04:50.792Z,95.70
2018-12-26T14:07:28.273Z,95.70
2018-12-26T14:10:05.908Z,95.60
2018-12-26T14:12:43.385Z,95.60
2018-12-26T14:15:20.896Z,95.70
2018-12-26T14:17:58.390Z,95.70
2018-12-26T14:20:35.896Z,95.60
2018-12-26T14:23:13.384Z,95.60
2018-12-26T14:25:50.926Z,95.60
2018-12-26T14:28:28.411Z,95.60
2018-12-26T14:31:05.924Z,95.60
2018-12-26T14:33:43.405Z,95.60
2018-12-26T14:36:20.925Z,95.50
2018-12-26T14:38:58.434Z,95.60
2018-12-26T14:41:35.908Z,95.60
2018-12-26T14:44:13.441Z,95.50
2018-12-26T14:46:50.931Z,95.60
2018-12-26T14:49:28.458Z,95.60
2018-12-26T14:52:05.949Z,95.60
2018-12-26T14:54:45.386Z,95.90
2018-12-26T14:57:20.933Z,95.50
2018-12-26T14:59:58.442Z,95.50
2018-12-26T15:02:35.916Z,95.60
2018-12-26T15:05:13.428Z,95.60
2018-12-26T15:07:50.917Z,95.60
2018-12-26T15:10:28.423Z,95.60
2018-12-26T15:13:05.915Z,95.50
2018-12-26T15:15:43.419Z,95.50
2018-12-26T15:18:20.904Z,95.50
2018-12-26T15:20:58.418Z,95.40
2018-12-26T15:23:35.893Z,95.40
2018-12-26T15:26:13.433Z,95.40
2018-12-26T15:28:50.937Z,95.30
2018-12-26T15:31:28.458Z,95.30
2018-12-26T15:34:05.933Z,95.30
2018-12-26T15:36:43.436Z,95.30
2018-12-26T15:39:20.935Z,95.30
2018-12-26T15:41:58.430Z,95.30
2018-12-26T15:44:35.925Z,95.30
2018-12-26T15:47:13.421Z,95.30
2018-12-26T15:49:50.922Z,95.40
2018-12-26T15:52:28.400Z,95.50
2018-12-26T15:55:05.902Z,95.50
2018-12-26T15:57:43.377Z,95.50
2018-12-26T16:00:20.910Z,95.60
2018-12-26T16:02:58.398Z,95.60
2018-12-26T16:05:35.932Z,95.70
2018-12-26T16:08:13.399Z,95.80
2018-12-26T16:10:50.923Z,95.60
2018-12-26T16:13:28.405Z,95.60
2018-12-26T16:16:05.920Z,95.60
2018-12-26T16:18:43.398Z,95.60
2018-12-26T16:21:20.933Z,95.60
2018-12-26T16:23:58.414Z,95.60
2018-12-26T16:26:35.967Z,95.60
2018-12-26T16:29:13.481Z,95.50
2018-12-26T16:31:50.992Z,95.50
2018-12-26T16:34:28.481Z,95.80
2018-12-26T16:37:05.983Z,95.40
2018-12-26T16:39:43.475Z,95.30
2018-12-26T16:42:20.956Z,95.30
2018-12-26T16:44:58.461Z,95.30
2018-12-26T16:47:35.951Z,95.30
2018-12-26T16:50:13.925Z,95.60
2018-12-26T16:52:51.422Z,95.20
2018-12-26T16:55:28.927Z,95.20
2018-12-26T16:58:06.409Z,95.20
2018-12-26T17:00:43.917Z,95.20
2018-12-26T17:03:21.399Z,95.20
2018-12-26T17:05:58.904Z,95.20
2018-12-26T17:08:36.381Z,95.20
2018-12-26T17:11:13.895Z,95.20
2018-12-26T17:13:51.486Z,95.20
2018-12-26T17:16:28.992Z,95.30
2018-12-26T17:19:06.478Z,95.20
2018-12-26T17:21:43.981Z,95.30
2018-12-26T17:24:21.467Z,95.30
2018-12-26T17:26:59.002Z,95.30
2018-12-26T17:29:36.495Z,95.20
2018-12-26T17:32:13.996Z,95.20
2018-12-26T17:34:51.493Z,95.20
2018-12-26T17:37:29.007Z,95.20
2018-12-26T17:40:07.402Z,95.20
2018-12-26T17:42:44.895Z,95.20
2018-12-26T17:45:27.305Z,95.10
2018-12-26T17:48:04.798Z,95.10
2018-12-26T17:50:53.675Z,95.40
2018-12-26T17:53:39.542Z,95.00
2018-12-26T17:56:37.336Z,95.00
2018-12-26T17:59:24.199Z,95.10
2018-12-26T18:02:16.123Z,95.10
2018-12-26T18:04:53.741Z,95.10
2018-12-26T18:07:31.342Z,95.00
2018-12-26T18:10:10.775Z,95.00
2018-12-26T18:12:48.331Z,94.90
2018-12-26T18:15:25.849Z,95.00
2018-12-26T18:18:03.405Z,94.90
2018-12-26T18:20:40.955Z,94.90
2018-12-26T18:23:18.472Z,94.90
2018-12-26T18:25:56.655Z,94.80
2018-12-26T18:28:34.168Z,94.80
2018-12-26T18:31:11.715Z,94.80
2018-12-26T18:33:49.248Z,94.80
2018-12-26T18:36:26.783Z,94.90
2018-12-26T18:39:04.478Z,94.80
2018-12-26T18:41:41.981Z,94.70
2018-12-26T18:44:19.491Z,95.10
2018-12-26T18:46:56.984Z,94.70
2018-12-26T18:49:34.472Z,94.70
2018-12-26T18:52:12.006Z,94.70
2018-12-26T18:54:49.579Z,94.70
2018-12-26T18:57:27.209Z,94.70
2018-12-26T19:00:04.775Z,94.70
2018-12-26T19:02:42.509Z,94.70
2018-12-26T19:05:20.146Z,94.70
2018-12-26T19:07:57.829Z,94.60
2018-12-26T19:10:35.321Z,94.60
2018-12-26T19:13:12.870Z,94.70
2018-12-26T19:15:50.356Z,94.70
2018-12-26T19:18:27.906Z,94.70
2018-12-26T19:21:05.432Z,94.70
2018-12-26T19:23:42.952Z,94.70
2018-12-26T19:26:20.510Z,94.70
2018-12-26T19:28:58.047Z,94.70
2018-12-26T19:31:39.421Z,94.70
2018-12-26T19:34:13.105Z,94.60
2018-12-26T19:36:50.666Z,94.70
2018-12-26T19:39:28.302Z,94.60
2018-12-26T19:42:05.864Z,94.60
2018-12-26T19:44:43.447Z,94.50
2018-12-26T19:47:20.991Z,94.60
2018-12-26T19:50:04.926Z,94.60
2018-12-26T19:52:36.062Z,94.60
2018-12-26T19:55:14.091Z,94.50
2018-12-26T19:57:51.636Z,94.50
2018-12-26T20:00:29.153Z,94.60
2018-12-26T20:03:06.665Z,94.60
2018-12-26T20:05:44.150Z,94.60
2018-12-26T20:08:21.670Z,94.60
2018-12-26T20:10:59.166Z,94.60
2018-12-26T20:13:36.690Z,94.60
2018-12-26T20:16:14.193Z,94.60
2018-12-26T20:18:51.705Z,94.50
2018-12-26T20:21:29.298Z,94.50
2018-12-26T20:24:06.803Z,94.50
2018-12-26T20:26:44.339Z,94.50
2018-12-26T20:29:21.917Z,94.50
2018-12-26T20:31:59.871Z,94.60
2018-12-26T20:34:38.966Z,94.60
2018-12-26T20:37:17.291Z,94.60
2018-12-26T20:39:56.217Z,94.60
2018-12-26T20:42:34.518Z,94.60
2018-12-26T20:45:13.851Z,94.60
2018-12-26T20:47:51.830Z,94.70
2018-12-26T20:50:30.275Z,94.70
2018-12-26T20:53:08.388Z,94.90
2018-12-26T20:55:46.840Z,94.70
2018-12-26T20:58:24.949Z,94.70
2018-12-26T21:01:03.225Z,94.70
2018-12-26T21:03:41.604Z,94.70
2018-12-26T21:06:20.002Z,94.70
2018-12-26T21:08:57.537Z,94.70
2018-12-26T21:11:35.030Z,94.60
2018-12-26T21:14:12.610Z,94.60
2018-12-26T21:16:54.906Z,94.60
2018-12-26T21:19:27.603Z,94.70
2018-12-26T21:22:05.121Z,94.70
2018-12-26T21:24:42.598Z,94.70
2018-12-26T21:27:20.117Z,94.60
2018-12-26T21:29:57.628Z,94.50
2018-12-26T21:32:35.135Z,94.60
2018-12-26T21:35:12.609Z,94.50
2018-12-26T21:37:50.120Z,94.50
2018-12-26T21:40:27.617Z,94.50
2018-12-26T21:43:05.138Z,94.60
2018-12-26T21:45:42.622Z,94.60
2018-12-26T21:48:20.140Z,94.60
2018-12-26T21:50:57.653Z,94.50
2018-12-26T21:53:35.179Z,94.60
2018-12-26T21:56:12.672Z,94.50
2018-12-26T21:58:50.193Z,94.60
2018-12-26T22:01:27.694Z,94.50
2018-12-26T22:04:05.196Z,94.40
2018-12-26T22:06:42.690Z,94.40
2018-12-26T22:09:20.181Z,94.30
2018-12-26T22:11:57.675Z,94.30
2018-12-26T22:14:35.207Z,94.30
2018-12-26T22:17:12.707Z,94.30
2018-12-26T22:19:50.228Z,94.30
2018-12-26T22:22:27.730Z,94.40
2018-12-26T22:25:05.209Z,94.40
2018-12-26T22:27:42.780Z,94.40
2018-12-26T22:30:20.296Z,94.50
2018-12-26T22:32:57.809Z,94.50
2018-12-26T22:35:35.302Z,94.40
2018-12-26T22:38:12.832Z,94.50
2018-12-26T22:40:50.343Z,94.40
2018-12-26T22:43:27.847Z,94.40
2018-12-26T22:46:05.346Z,94.40
2018-12-26T22:48:42.855Z,94.50
2018-12-26T22:51:20.347Z,94.60
2018-12-26T22:53:58.082Z,94.70
2018-12-26T22:56:35.581Z,94.60
2018-12-26T22:59:13.104Z,94.70
2018-12-26T23:01:50.594Z,94.70
2018-12-26T23:04:28.110Z,94.70
2018-12-26T23:07:05.596Z,94.70
2018-12-26T23:09:43.098Z,94.70
2018-12-26T23:12:20.587Z,94.60
2018-12-26T23:14:58.093Z,94.50
2018-12-26T23:17:35.608Z,94.50
2018-12-26T23:20:13.114Z,94.40
2018-12-26T23:22:50.631Z,94.40
2018-12-26T23:25:28.142Z,94.30
2018-12-26T23:28:05.623Z,94.20
2018-12-26T23:30:43.130Z,94.30
2018-12-26T23:33:20.657Z,94.30
2018-12-26T23:35:58.146Z,94.30
2018-12-26T23:38:35.655Z,94.30
2018-12-26T23:41:13.174Z,94.30
2018-12-26T23:43:50.678Z,94.30
2018-12-26T23:46:28.163Z,94.30
2018-12-26T23:49:05.668Z,94.40
2018-12-26T23:51:43.168Z,94.40
2018-12-26T23:54:20.686Z,94.40
2018-12-26T23:56:58.166Z,94.50
2018-12-26T23:59:35.706Z,94.80
